sensor_id;sensor_type;location;lat;lon;timestamp;P1;durP1;ratioP1;P2;durP2;ratioP2
28531;SDS011;15738;44.860;10.066;2022-09-20T00:02:28;8.18;;;3.08;;
28531;SDS011;15738;44.860;10.066;2022-09-20T00:05:15;8.00;;;3.10;;
28531;SDS011;15738;44.860;10.066;2022-09-20T00:08:02;7.13;;;3.40;;
28531;SDS011;15738;44.860;10.066;2022-09-20T00:10:49;10.20;;;3.13;;
28531;SDS011;15738;44.860;10.066;2022-09-20T00:13:36;8.50;;;3.38;;
28531;SDS011;15738;44.860;10.066;2022-09-20T00:16:24;7.30;;;3.38;;
28531;SDS011;15738;44.860;10.066;2022-09-20T00:19:16;7.57;;;3.15;;
28531;SDS011;15738;44.860;10.066;2022-09-20T00:22:03;9.18;;;3.03;;
28531;SDS011;15738;44.860;10.066;2022-09-20T00:24:49;7.63;;;3.00;;
28531;SDS011;15738;44.860;10.066;2022-09-20T00:27:35;6.22;;;2.90;;
28531;SDS011;15738;44.860;10.066;2022-09-20T00:30:21;7.00;;;2.97;;
28531;SDS011;15738;44.860;10.066;2022-09-20T00:33:08;7.07;;;3.20;;
28531;SDS011;15738;44.860;10.066;2022-09-20T00:35:53;6.88;;;3.03;;
28531;SDS011;15738;44.860;10.066;2022-09-20T00:38:39;13.07;;;3.50;;
28531;SDS011;15738;44.860;10.066;2022-09-20T00:41:25;11.32;;;3.47;;
28531;SDS011;15738;44.860;10.066;2022-09-20T00:50:36;6.15;;;3.30;;
28531;SDS011;15738;44.860;10.066;2022-09-20T00:53:38;6.22;;;2.97;;
28531;SDS011;15738;44.860;10.066;2022-09-20T00:56:29;7.55;;;3.25;;
28531;SDS011;15738;44.860;10.066;2022-09-20T00:59:20;8.10;;;2.95;;
28531;SDS011;15738;44.860;10.066;2022-09-20T01:02:15;6.60;;;2.97;;
28531;SDS011;15738;44.860;10.066;2022-09-20T01:05:11;7.78;;;3.03;;
28531;SDS011;15738;44.860;10.066;2022-09-20T01:07:58;6.82;;;3.50;;
28531;SDS011;15738;44.860;10.066;2022-09-20T01:10:43;6.55;;;2.78;;
28531;SDS011;15738;44.860;10.066;2022-09-20T01:13:29;6.75;;;2.72;;
28531;SDS011;15738;44.860;10.066;2022-09-20T01:16:15;7.60;;;2.88;;
28531;SDS011;15738;44.860;10.066;2022-09-20T01:19:04;7.63;;;3.08;;
28531;SDS011;15738;44.860;10.066;2022-09-20T01:22:03;4.70;;;2.72;;
28531;SDS011;15738;44.860;10.066;2022-09-20T01:25:10;6.22;;;2.80;;
28531;SDS011;15738;44.860;10.066;2022-09-20T01:28:00;5.68;;;3.15;;
28531;SDS011;15738;44.860;10.066;2022-09-20T01:31:30;8.05;;;3.15;;
28531;SDS011;15738;44.860;10.066;2022-09-20T01:34:13;10.70;;;3.20;;
28531;SDS011;15738;44.860;10.066;2022-09-20T01:37:07;5.72;;;2.80;;
28531;SDS011;15738;44.860;10.066;2022-09-20T01:42:58;10.13;;;3.17;;
28531;SDS011;15738;44.860;10.066;2022-09-20T01:46:14;5.45;;;2.92;;
28531;SDS011;15738;44.860;10.066;2022-09-20T02:02:08;10.10;;;2.92;;
28531;SDS011;15738;44.860;10.066;2022-09-20T02:05:36;6.18;;;2.83;;
28531;SDS011;15738;44.860;10.066;2022-09-20T02:08:33;4.93;;;2.90;;
28531;SDS011;15738;44.860;10.066;2022-09-20T02:27:28;7.38;;;3.67;;
28531;SDS011;15738;44.860;10.066;2022-09-20T02:40:08;13.32;;;3.85;;
28531;SDS011;15738;44.860;10.066;2022-09-20T02:53:16;11.65;;;3.97;;
28531;SDS011;15738;44.860;10.066;2022-09-20T03:02:26;10.00;;;5.35;;
28531;SDS011;15738;44.860;10.066;2022-09-20T03:08:37;8.15;;;4.43;;
28531;SDS011;15738;44.860;10.066;2022-09-20T03:14:27;10.45;;;3.80;;
28531;SDS011;15738;44.860;10.066;2022-09-20T03:17:29;7.53;;;4.00;;
28531;SDS011;15738;44.860;10.066;2022-09-20T03:26:37;8.13;;;3.90;;
28531;SDS011;15738;44.860;10.066;2022-09-20T03:36:04;8.35;;;3.78;;
28531;SDS011;15738;44.860;10.066;2022-09-20T03:42:29;9.77;;;4.00;;
28531;SDS011;15738;44.860;10.066;2022-09-20T03:57:40;6.78;;;3.65;;
28531;SDS011;15738;44.860;10.066;2022-09-20T04:00:38;8.63;;;4.15;;
28531;SDS011;15738;44.860;10.066;2022-09-20T04:16:20;8.48;;;4.20;;
28531;SDS011;15738;44.860;10.066;2022-09-20T04:19:20;6.63;;;3.50;;
28531;SDS011;15738;44.860;10.066;2022-09-20T04:22:18;8.52;;;3.70;;
28531;SDS011;15738;44.860;10.066;2022-09-20T04:25:22;5.63;;;3.13;;
28531;SDS011;15738;44.860;10.066;2022-09-20T04:28:14;20.67;;;4.35;;
28531;SDS011;15738;44.860;10.066;2022-09-20T04:31:25;11.77;;;4.13;;
28531;SDS011;15738;44.860;10.066;2022-09-20T04:34:23;13.73;;;3.63;;
28531;SDS011;15738;44.860;10.066;2022-09-20T04:37:35;14.07;;;4.27;;
28531;SDS011;15738;44.860;10.066;2022-09-20T04:55:59;13.93;;;4.00;;
28531;SDS011;15738;44.860;10.066;2022-09-20T05:05:20;6.47;;;4.00;;
28531;SDS011;15738;44.860;10.066;2022-09-20T05:17:29;9.40;;;4.47;;
28531;SDS011;15738;44.860;10.066;2022-09-20T05:20:25;13.45;;;4.28;;
28531;SDS011;15738;44.860;10.066;2022-09-20T05:30:31;10.07;;;4.18;;
28531;SDS011;15738;44.860;10.066;2022-09-20T05:33:28;9.43;;;4.25;;
28531;SDS011;15738;44.860;10.066;2022-09-20T05:36:25;12.43;;;4.20;;
28531;SDS011;15738;44.860;10.066;2022-09-20T05:39:32;9.27;;;4.28;;
28531;SDS011;15738;44.860;10.066;2022-09-20T05:42:29;16.35;;;4.78;;
28531;SDS011;15738;44.860;10.066;2022-09-20T05:45:25;15.65;;;4.05;;
28531;SDS011;15738;44.860;10.066;2022-09-20T06:16:50;8.55;;;2.83;;
28531;SDS011;15738;44.860;10.066;2022-09-20T06:22:38;11.73;;;3.85;;
28531;SDS011;15738;44.860;10.066;2022-09-20T06:25:33;8.98;;;3.90;;
28531;SDS011;15738;44.860;10.066;2022-09-20T06:28:37;8.80;;;3.85;;
28531;SDS011;15738;44.860;10.066;2022-09-20T06:31:32;10.43;;;4.00;;
28531;SDS011;15738;44.860;10.066;2022-09-20T06:34:17;15.50;;;4.30;;
28531;SDS011;15738;44.860;10.066;2022-09-20T06:37:06;11.73;;;4.95;;
28531;SDS011;15738;44.860;10.066;2022-09-20T06:43:34;11.50;;;4.00;;
28531;SDS011;15738;44.860;10.066;2022-09-20T06:46:21;12.27;;;4.65;;
28531;SDS011;15738;44.860;10.066;2022-09-20T06:49:07;28.52;;;4.43;;
28531;SDS011;15738;44.860;10.066;2022-09-20T06:51:53;13.00;;;3.90;;
28531;SDS011;15738;44.860;10.066;2022-09-20T06:54:41;9.95;;;4.18;;
28531;SDS011;15738;44.860;10.066;2022-09-20T06:57:31;9.65;;;3.67;;
28531;SDS011;15738;44.860;10.066;2022-09-20T07:00:20;15.57;;;3.95;;
28531;SDS011;15738;44.860;10.066;2022-09-20T07:03:05;9.95;;;3.55;;
28531;SDS011;15738;44.860;10.066;2022-09-20T07:05:52;12.82;;;3.70;;
28531;SDS011;15738;44.860;10.066;2022-09-20T07:08:37;6.60;;;3.67;;
28531;SDS011;15738;44.860;10.066;2022-09-20T07:11:25;6.55;;;3.60;;
28531;SDS011;15738;44.860;10.066;2022-09-20T07:14:11;10.32;;;3.70;;
28531;SDS011;15738;44.860;10.066;2022-09-20T07:16:57;8.15;;;3.88;;
28531;SDS011;15738;44.860;10.066;2022-09-20T07:19:43;9.75;;;3.78;;
28531;SDS011;15738;44.860;10.066;2022-09-20T07:22:29;13.32;;;4.05;;
28531;SDS011;15738;44.860;10.066;2022-09-20T07:25:14;9.77;;;3.95;;
28531;SDS011;15738;44.860;10.066;2022-09-20T07:28:02;13.65;;;3.97;;
28531;SDS011;15738;44.860;10.066;2022-09-20T07:30:48;14.45;;;4.10;;
28531;SDS011;15738;44.860;10.066;2022-09-20T07:33:34;8.18;;;3.42;;
28531;SDS011;15738;44.860;10.066;2022-09-20T07:36:19;9.73;;;4.00;;
28531;SDS011;15738;44.860;10.066;2022-09-20T07:39:05;12.18;;;3.75;;
28531;SDS011;15738;44.860;10.066;2022-09-20T07:41:51;10.05;;;3.47;;
28531;SDS011;15738;44.860;10.066;2022-09-20T07:44:37;12.25;;;3.58;;
28531;SDS011;15738;44.860;10.066;2022-09-20T07:47:23;8.60;;;3.70;;
28531;SDS011;15738;44.860;10.066;2022-09-20T07:50:09;10.45;;;3.80;;
28531;SDS011;15738;44.860;10.066;2022-09-20T07:52:55;12.38;;;3.53;;
28531;SDS011;15738;44.860;10.066;2022-09-20T07:55:41;15.90;;;3.50;;
28531;SDS011;15738;44.860;10.066;2022-09-20T07:58:28;16.88;;;3.00;;
28531;SDS011;15738;44.860;10.066;2022-09-20T08:01:14;7.55;;;2.25;;
28531;SDS011;15738;44.860;10.066;2022-09-20T08:04:00;9.18;;;3.30;;
28531;SDS011;15738;44.860;10.066;2022-09-20T08:06:48;10.90;;;3.38;;
28531;SDS011;15738;44.860;10.066;2022-09-20T08:09:34;13.57;;;3.28;;
28531;SDS011;15738;44.860;10.066;2022-09-20T08:12:20;15.18;;;3.60;;
28531;SDS011;15738;44.860;10.066;2022-09-20T08:15:26;18.73;;;3.38;;
28531;SDS011;15738;44.860;10.066;2022-09-20T08:18:14;14.70;;;2.90;;
28531;SDS011;15738;44.860;10.066;2022-09-20T08:21:02;14.63;;;3.33;;
28531;SDS011;15738;44.860;10.066;2022-09-20T08:23:50;12.00;;;3.72;;
28531;SDS011;15738;44.860;10.066;2022-09-20T08:26:35;10.38;;;2.92;;
28531;SDS011;15738;44.860;10.066;2022-09-20T08:29:21;14.18;;;3.40;;
28531;SDS011;15738;44.860;10.066;2022-09-20T08:32:07;11.68;;;3.40;;
28531;SDS011;15738;44.860;10.066;2022-09-20T08:34:53;11.90;;;3.67;;
28531;SDS011;15738;44.860;10.066;2022-09-20T08:37:39;13.48;;;3.38;;
28531;SDS011;15738;44.860;10.066;2022-09-20T08:40:28;16.48;;;3.80;;
28531;SDS011;15738;44.860;10.066;2022-09-20T08:43:15;10.35;;;3.20;;
28531;SDS011;15738;44.860;10.066;2022-09-20T08:46:08;11.82;;;3.28;;
28531;SDS011;15738;44.860;10.066;2022-09-20T08:48:58;18.40;;;3.58;;
28531;SDS011;15738;44.860;10.066;2022-09-20T08:51:47;15.95;;;3.38;;
28531;SDS011;15738;44.860;10.066;2022-09-20T08:54:34;24.55;;;3.55;;
28531;SDS011;15738;44.860;10.066;2022-09-20T08:57:20;21.13;;;3.75;;
28531;SDS011;15738;44.860;10.066;2022-09-20T09:00:05;11.13;;;3.97;;
28531;SDS011;15738;44.860;10.066;2022-09-20T09:03:04;15.98;;;3.72;;
28531;SDS011;15738;44.860;10.066;2022-09-20T09:05:55;11.13;;;3.33;;
28531;SDS011;15738;44.860;10.066;2022-09-20T09:08:42;13.18;;;3.63;;
28531;SDS011;15738;44.860;10.066;2022-09-20T09:11:31;11.77;;;3.95;;
28531;SDS011;15738;44.860;10.066;2022-09-20T09:14:25;14.38;;;3.88;;
28531;SDS011;15738;44.860;10.066;2022-09-20T09:17:31;10.07;;;3.85;;
28531;SDS011;15738;44.860;10.066;2022-09-20T09:20:20;8.70;;;3.78;;
28531;SDS011;15738;44.860;10.066;2022-09-20T09:23:07;12.55;;;4.03;;
28531;SDS011;15738;44.860;10.066;2022-09-20T09:26:03;15.20;;;3.83;;
28531;SDS011;15738;44.860;10.066;2022-09-20T09:32:17;16.08;;;3.90;;
28531;SDS011;15738;44.860;10.066;2022-09-20T09:35:21;13.27;;;4.15;;
28531;SDS011;15738;44.860;10.066;2022-09-20T09:38:14;13.30;;;4.10;;
28531;SDS011;15738;44.860;10.066;2022-09-20T09:41:03;9.85;;;3.58;;
28531;SDS011;15738;44.860;10.066;2022-09-20T09:46:45;13.60;;;3.80;;
28531;SDS011;15738;44.860;10.066;2022-09-20T09:49:34;12.48;;;4.50;;
28531;SDS011;15738;44.860;10.066;2022-09-20T09:52:20;14.35;;;4.95;;
28531;SDS011;15738;44.860;10.066;2022-09-20T09:55:12;15.55;;;4.95;;
28531;SDS011;15738;44.860;10.066;2022-09-20T10:01:23;17.30;;;4.45;;
28531;SDS011;15738;44.860;10.066;2022-09-20T10:17:20;11.55;;;4.47;;
28531;SDS011;15738;44.860;10.066;2022-09-20T10:20:59;15.07;;;4.90;;
28531;SDS011;15738;44.860;10.066;2022-09-20T10:30:16;13.35;;;4.22;;
28531;SDS011;15738;44.860;10.066;2022-09-20T10:33:16;10.35;;;4.13;;
28531;SDS011;15738;44.860;10.066;2022-09-20T10:39:16;11.40;;;4.40;;
28531;SDS011;15738;44.860;10.066;2022-09-20T10:49:25;13.05;;;4.07;;
28531;SDS011;15738;44.860;10.066;2022-09-20T11:08:14;9.48;;;3.30;;
28531;SDS011;15738;44.860;10.066;2022-09-20T11:14:09;11.70;;;3.00;;
28531;SDS011;15738;44.860;10.066;2022-09-20T11:17:10;8.98;;;3.75;;
28531;SDS011;15738;44.860;10.066;2022-09-20T11:25:58;7.60;;;3.28;;
28531;SDS011;15738;44.860;10.066;2022-09-20T11:28:53;9.88;;;2.97;;
28531;SDS011;15738;44.860;10.066;2022-09-20T11:31:45;8.30;;;3.30;;
28531;SDS011;15738;44.860;10.066;2022-09-20T11:34:36;5.72;;;2.80;;
28531;SDS011;15738;44.860;10.066;2022-09-20T11:37:34;13.27;;;4.00;;
28531;SDS011;15738;44.860;10.066;2022-09-20T11:41:01;7.53;;;3.03;;
28531;SDS011;15738;44.860;10.066;2022-09-20T11:43:52;17.27;;;3.35;;
28531;SDS011;15738;44.860;10.066;2022-09-20T11:47:03;13.18;;;2.65;;
28531;SDS011;15738;44.860;10.066;2022-09-20T11:56:30;7.88;;;2.20;;
28531;SDS011;15738;44.860;10.066;2022-09-20T11:59:40;10.52;;;2.67;;
28531;SDS011;15738;44.860;10.066;2022-09-20T12:05:38;11.95;;;2.83;;
28531;SDS011;15738;44.860;10.066;2022-09-20T12:08:38;7.75;;;2.30;;
28531;SDS011;15738;44.860;10.066;2022-09-20T12:11:30;6.50;;;2.78;;
28531;SDS011;15738;44.860;10.066;2022-09-20T12:14:19;9.93;;;2.10;;
28531;SDS011;15738;44.860;10.066;2022-09-20T12:38:30;10.98;;;2.13;;
28531;SDS011;15738;44.860;10.066;2022-09-20T12:41:18;8.30;;;2.40;;
28531;SDS011;15738;44.860;10.066;2022-09-20T12:44:27;5.40;;;2.15;;
28531;SDS011;15738;44.860;10.066;2022-09-20T12:47:20;8.60;;;2.60;;
28531;SDS011;15738;44.860;10.066;2022-09-20T12:50:12;10.32;;;3.15;;
28531;SDS011;15738;44.860;10.066;2022-09-20T12:53:17;6.93;;;2.38;;
28531;SDS011;15738;44.860;10.066;2022-09-20T12:56:05;9.32;;;2.40;;
28531;SDS011;15738;44.860;10.066;2022-09-20T12:59:21;8.95;;;2.75;;
28531;SDS011;15738;44.860;10.066;2022-09-20T13:05:47;10.32;;;1.60;;
28531;SDS011;15738;44.860;10.066;2022-09-20T13:11:53;4.78;;;1.30;;
28531;SDS011;15738;44.860;10.066;2022-09-20T13:14:40;4.45;;;1.40;;
28531;SDS011;15738;44.860;10.066;2022-09-20T13:17:28;14.85;;;1.77;;
28531;SDS011;15738;44.860;10.066;2022-09-20T13:20:16;4.78;;;1.25;;
28531;SDS011;15738;44.860;10.066;2022-09-20T13:23:08;3.40;;;1.10;;
28531;SDS011;15738;44.860;10.066;2022-09-20T13:26:06;5.45;;;1.60;;
28531;SDS011;15738;44.860;10.066;2022-09-20T13:28:58;1.77;;;0.85;;
28531;SDS011;15738;44.860;10.066;2022-09-20T13:32:21;11.68;;;1.27;;
28531;SDS011;15738;44.860;10.066;2022-09-20T13:38:16;10.80;;;1.40;;
28531;SDS011;15738;44.860;10.066;2022-09-20T13:41:07;5.57;;;1.48;;
28531;SDS011;15738;44.860;10.066;2022-09-20T13:43:56;7.38;;;1.50;;
28531;SDS011;15738;44.860;10.066;2022-09-20T13:46:43;5.40;;;1.38;;
28531;SDS011;15738;44.860;10.066;2022-09-20T13:49:30;6.53;;;1.20;;
28531;SDS011;15738;44.860;10.066;2022-09-20T13:52:24;4.90;;;1.38;;
28531;SDS011;15738;44.860;10.066;2022-09-20T14:01:29;5.80;;;1.08;;
28531;SDS011;15738;44.860;10.066;2022-09-20T14:04:23;4.07;;;1.27;;
28531;SDS011;15738;44.860;10.066;2022-09-20T14:07:12;5.40;;;1.45;;
28531;SDS011;15738;44.860;10.066;2022-09-20T14:09:59;3.22;;;1.23;;
28531;SDS011;15738;44.860;10.066;2022-09-20T14:12:45;4.00;;;1.10;;
28531;SDS011;15738;44.860;10.066;2022-09-20T14:15:35;3.80;;;1.10;;
28531;SDS011;15738;44.860;10.066;2022-09-20T14:18:22;8.15;;;1.60;;
28531;SDS011;15738;44.860;10.066;2022-09-20T14:21:08;7.70;;;1.55;;
28531;SDS011;15738;44.860;10.066;2022-09-20T14:23:59;3.40;;;1.42;;
28531;SDS011;15738;44.860;10.066;2022-09-20T14:27:01;11.68;;;1.70;;
28531;SDS011;15738;44.860;10.066;2022-09-20T14:29:48;4.65;;;1.23;;
28531;SDS011;15738;44.860;10.066;2022-09-20T14:32:38;5.60;;;1.25;;
28531;SDS011;15738;44.860;10.066;2022-09-20T14:35:45;5.57;;;1.30;;
28531;SDS011;15738;44.860;10.066;2022-09-20T14:38:35;12.38;;;1.60;;
28531;SDS011;15738;44.860;10.066;2022-09-20T14:41:25;6.30;;;1.33;;
28531;SDS011;15738;44.860;10.066;2022-09-20T14:44:40;2.35;;;1.15;;
28531;SDS011;15738;44.860;10.066;2022-09-20T14:47:27;7.10;;;1.10;;
28531;SDS011;15738;44.860;10.066;2022-09-20T14:53:19;6.20;;;1.50;;
28531;SDS011;15738;44.860;10.066;2022-09-20T14:56:11;3.33;;;1.30;;
28531;SDS011;15738;44.860;10.066;2022-09-20T14:59:03;5.93;;;1.45;;
28531;SDS011;15738;44.860;10.066;2022-09-20T15:01:59;6.78;;;1.60;;
28531;SDS011;15738;44.860;10.066;2022-09-20T15:04:52;7.63;;;1.50;;
28531;SDS011;15738;44.860;10.066;2022-09-20T15:07:40;14.15;;;1.75;;
28531;SDS011;15738;44.860;10.066;2022-09-20T15:10:26;6.18;;;1.40;;
28531;SDS011;15738;44.860;10.066;2022-09-20T15:13:12;4.10;;;1.00;;
28531;SDS011;15738;44.860;10.066;2022-09-20T15:15:57;4.43;;;1.10;;
28531;SDS011;15738;44.860;10.066;2022-09-20T15:18:43;11.27;;;1.40;;
28531;SDS011;15738;44.860;10.066;2022-09-20T15:21:29;7.50;;;1.30;;
28531;SDS011;15738;44.860;10.066;2022-09-20T15:24:15;4.93;;;1.63;;
28531;SDS011;15738;44.860;10.066;2022-09-20T15:27:03;3.60;;;1.25;;
28531;SDS011;15738;44.860;10.066;2022-09-20T15:29:48;5.63;;;1.17;;
28531;SDS011;15738;44.860;10.066;2022-09-20T15:32:36;8.75;;;1.50;;
28531;SDS011;15738;44.860;10.066;2022-09-20T15:35:21;6.82;;;1.50;;
28531;SDS011;15738;44.860;10.066;2022-09-20T15:38:07;10.40;;;1.95;;
28531;SDS011;15738;44.860;10.066;2022-09-20T15:40:58;4.55;;;1.25;;
28531;SDS011;15738;44.860;10.066;2022-09-20T15:43:45;5.72;;;1.35;;
28531;SDS011;15738;44.860;10.066;2022-09-20T15:46:34;9.38;;;1.65;;
28531;SDS011;15738;44.860;10.066;2022-09-20T15:49:19;6.95;;;1.58;;
28531;SDS011;15738;44.860;10.066;2022-09-20T15:52:06;5.57;;;1.38;;
28531;SDS011;15738;44.860;10.066;2022-09-20T15:54:51;5.55;;;1.58;;
28531;SDS011;15738;44.860;10.066;2022-09-20T15:57:37;5.25;;;1.30;;
28531;SDS011;15738;44.860;10.066;2022-09-20T16:00:25;6.53;;;1.30;;
28531;SDS011;15738;44.860;10.066;2022-09-20T16:03:11;8.13;;;1.40;;
28531;SDS011;15738;44.860;10.066;2022-09-20T16:05:57;6.35;;;1.50;;
28531;SDS011;15738;44.860;10.066;2022-09-20T16:08:49;3.10;;;1.13;;
28531;SDS011;15738;44.860;10.066;2022-09-20T16:11:35;5.20;;;1.38;;
28531;SDS011;15738;44.860;10.066;2022-09-20T16:14:21;4.32;;;1.40;;
28531;SDS011;15738;44.860;10.066;2022-09-20T16:17:07;9.82;;;1.58;;
28531;SDS011;15738;44.860;10.066;2022-09-20T16:19:54;4.45;;;1.10;;
28531;SDS011;15738;44.860;10.066;2022-09-20T16:22:40;5.72;;;1.33;;
28531;SDS011;15738;44.860;10.066;2022-09-20T16:25:26;7.90;;;1.60;;
28531;SDS011;15738;44.860;10.066;2022-09-20T16:28:11;4.25;;;0.98;;
28531;SDS011;15738;44.860;10.066;2022-09-20T16:30:58;6.97;;;1.50;;
28531;SDS011;15738;44.860;10.066;2022-09-20T16:33:44;16.85;;;1.30;;
28531;SDS011;15738;44.860;10.066;2022-09-20T16:36:30;7.35;;;1.33;;
28531;SDS011;15738;44.860;10.066;2022-09-20T16:39:17;3.60;;;1.38;;
28531;SDS011;15738;44.860;10.066;2022-09-20T16:42:04;7.38;;;1.25;;
28531;SDS011;15738;44.860;10.066;2022-09-20T16:44:51;5.47;;;1.17;;
28531;SDS011;15738;44.860;10.066;2022-09-20T16:47:37;5.70;;;1.40;;
28531;SDS011;15738;44.860;10.066;2022-09-20T16:50:24;6.60;;;1.40;;
28531;SDS011;15738;44.860;10.066;2022-09-20T16:53:10;9.52;;;1.40;;
28531;SDS011;15738;44.860;10.066;2022-09-20T16:55:56;7.72;;;1.55;;
28531;SDS011;15738;44.860;10.066;2022-09-20T16:58:41;5.88;;;1.90;;
28531;SDS011;15738;44.860;10.066;2022-09-20T17:01:28;6.53;;;1.40;;
28531;SDS011;15738;44.860;10.066;2022-09-20T17:04:15;7.72;;;1.58;;
28531;SDS011;15738;44.860;10.066;2022-09-20T17:07:03;4.85;;;1.85;;
28531;SDS011;15738;44.860;10.066;2022-09-20T17:09:49;8.02;;;1.80;;
28531;SDS011;15738;44.860;10.066;2022-09-20T17:12:34;13.15;;;1.80;;
28531;SDS011;15738;44.860;10.066;2022-09-20T17:15:25;4.63;;;1.52;;
28531;SDS011;15738;44.860;10.066;2022-09-20T17:18:12;4.55;;;1.63;;
28531;SDS011;15738;44.860;10.066;2022-09-20T17:21:03;6.35;;;1.50;;
28531;SDS011;15738;44.860;10.066;2022-09-20T17:23:51;4.32;;;1.35;;
28531;SDS011;15738;44.860;10.066;2022-09-20T17:26:44;6.70;;;1.70;;
28531;SDS011;15738;44.860;10.066;2022-09-20T17:29:30;10.25;;;1.50;;
28531;SDS011;15738;44.860;10.066;2022-09-20T17:32:16;3.30;;;1.42;;
28531;SDS011;15738;44.860;10.066;2022-09-20T17:35:03;9.23;;;1.50;;
28531;SDS011;15738;44.860;10.066;2022-09-20T17:37:49;6.57;;;1.42;;
28531;SDS011;15738;44.860;10.066;2022-09-20T17:40:35;5.50;;;1.50;;
28531;SDS011;15738;44.860;10.066;2022-09-20T17:43:21;3.97;;;1.50;;
28531;SDS011;15738;44.860;10.066;2022-09-20T17:46:10;6.95;;;1.70;;
28531;SDS011;15738;44.860;10.066;2022-09-20T17:48:59;8.48;;;2.00;;
28531;SDS011;15738;44.860;10.066;2022-09-20T17:51:47;21.13;;;1.63;;
28531;SDS011;15738;44.860;10.066;2022-09-20T17:54:37;9.23;;;1.83;;
28531;SDS011;15738;44.860;10.066;2022-09-20T17:57:24;6.97;;;1.77;;
28531;SDS011;15738;44.860;10.066;2022-09-20T18:00:10;8.30;;;1.48;;
28531;SDS011;15738;44.860;10.066;2022-09-20T18:02:56;11.70;;;1.90;;
28531;SDS011;15738;44.860;10.066;2022-09-20T18:05:48;6.05;;;1.70;;
28531;SDS011;15738;44.860;10.066;2022-09-20T18:08:34;4.90;;;1.80;;
28531;SDS011;15738;44.860;10.066;2022-09-20T18:11:21;9.23;;;1.85;;
28531;SDS011;15738;44.860;10.066;2022-09-20T18:14:10;5.32;;;1.52;;
28531;SDS011;15738;44.860;10.066;2022-09-20T18:16:58;11.88;;;1.90;;
28531;SDS011;15738;44.860;10.066;2022-09-20T18:19:46;11.10;;;2.13;;
28531;SDS011;15738;44.860;10.066;2022-09-20T18:22:31;14.70;;;2.47;;
28531;SDS011;15738;44.860;10.066;2022-09-20T18:25:17;17.67;;;2.15;;
28531;SDS011;15738;44.860;10.066;2022-09-20T18:28:03;14.68;;;2.03;;
28531;SDS011;15738;44.860;10.066;2022-09-20T18:30:59;10.38;;;2.10;;
28531;SDS011;15738;44.860;10.066;2022-09-20T18:33:52;8.07;;;2.20;;
28531;SDS011;15738;44.860;10.066;2022-09-20T18:36:39;8.93;;;1.70;;
28531;SDS011;15738;44.860;10.066;2022-09-20T18:39:26;11.25;;;1.95;;
28531;SDS011;15738;44.860;10.066;2022-09-20T18:42:13;10.38;;;2.10;;
28531;SDS011;15738;44.860;10.066;2022-09-20T18:44:59;8.52;;;2.30;;
28531;SDS011;15738;44.860;10.066;2022-09-20T18:47:44;6.30;;;1.92;;
28531;SDS011;15738;44.860;10.066;2022-09-20T18:50:31;16.38;;;2.28;;
28531;SDS011;15738;44.860;10.066;2022-09-20T18:53:18;10.85;;;2.20;;
28531;SDS011;15738;44.860;10.066;2022-09-20T18:56:08;15.82;;;2.60;;
28531;SDS011;15738;44.860;10.066;2022-09-20T19:11:03;5.57;;;1.98;;
28531;SDS011;15738;44.860;10.066;2022-09-20T19:14:05;7.20;;;2.28;;
28531;SDS011;15738;44.860;10.066;2022-09-20T19:16:59;10.88;;;2.72;;
28531;SDS011;15738;44.860;10.066;2022-09-20T19:19:50;7.05;;;2.40;;
28531;SDS011;15738;44.860;10.066;2022-09-20T19:26:26;8.35;;;2.75;;
28531;SDS011;15738;44.860;10.066;2022-09-20T19:29:18;16.63;;;4.50;;
28531;SDS011;15738;44.860;10.066;2022-09-20T19:32:08;20.33;;;6.03;;
28531;SDS011;15738;44.860;10.066;2022-09-20T19:35:01;15.55;;;5.82;;
28531;SDS011;15738;44.860;10.066;2022-09-20T19:41:03;23.00;;;6.82;;
28531;SDS011;15738;44.860;10.066;2022-09-20T19:50:33;19.60;;;8.50;;
28531;SDS011;15738;44.860;10.066;2022-09-20T19:53:30;28.80;;;8.35;;
28531;SDS011;15738;44.860;10.066;2022-09-20T19:59:05;20.00;;;8.35;;
28531;SDS011;15738;44.860;10.066;2022-09-20T20:01:53;26.92;;;7.78;;
28531;SDS011;15738;44.860;10.066;2022-09-20T20:04:41;23.70;;;8.63;;
28531;SDS011;15738;44.860;10.066;2022-09-20T20:07:35;27.85;;;8.95;;
28531;SDS011;15738;44.860;10.066;2022-09-20T20:20:24;37.00;;;10.13;;
28531;SDS011;15738;44.860;10.066;2022-09-20T20:26:23;30.88;;;9.40;;
28531;SDS011;15738;44.860;10.066;2022-09-20T20:29:10;32.20;;;9.73;;
28531;SDS011;15738;44.860;10.066;2022-09-20T20:31:56;32.42;;;9.60;;
28531;SDS011;15738;44.860;10.066;2022-09-20T20:34:42;42.22;;;9.10;;
28531;SDS011;15738;44.860;10.066;2022-09-20T20:37:28;28.67;;;8.80;;
28531;SDS011;15738;44.860;10.066;2022-09-20T20:40:16;34.88;;;9.02;;
28531;SDS011;15738;44.860;10.066;2022-09-20T20:43:02;29.38;;;8.25;;
28531;SDS011;15738;44.860;10.066;2022-09-20T20:45:50;25.45;;;7.78;;
28531;SDS011;15738;44.860;10.066;2022-09-20T20:48:35;19.50;;;6.32;;
28531;SDS011;15738;44.860;10.066;2022-09-20T20:51:21;20.45;;;5.00;;
28531;SDS011;15738;44.860;10.066;2022-09-20T20:54:07;9.45;;;3.50;;
28531;SDS011;15738;44.860;10.066;2022-09-20T20:56:54;9.57;;;3.20;;
28531;SDS011;15738;44.860;10.066;2022-09-20T20:59:40;15.85;;;3.20;;
28531;SDS011;15738;44.860;10.066;2022-09-20T21:02:25;9.98;;;2.85;;
28531;SDS011;15738;44.860;10.066;2022-09-20T21:05:11;7.32;;;2.35;;
28531;SDS011;15738;44.860;10.066;2022-09-20T21:07:59;7.38;;;2.40;;
28531;SDS011;15738;44.860;10.066;2022-09-20T21:10:45;6.88;;;2.30;;
28531;SDS011;15738;44.860;10.066;2022-09-20T21:13:30;4.93;;;2.00;;
28531;SDS011;15738;44.860;10.066;2022-09-20T21:16:17;4.55;;;2.00;;
28531;SDS011;15738;44.860;10.066;2022-09-20T21:19:08;4.07;;;2.03;;
28531;SDS011;15738;44.860;10.066;2022-09-20T21:21:58;10.40;;;2.72;;
28531;SDS011;15738;44.860;10.066;2022-09-20T21:24:44;7.82;;;2.10;;
28531;SDS011;15738;44.860;10.066;2022-09-20T21:27:31;13.98;;;3.00;;
28531;SDS011;15738;44.860;10.066;2022-09-20T21:30:19;15.38;;;5.22;;
28531;SDS011;15738;44.860;10.066;2022-09-20T21:33:05;14.25;;;4.95;;
28531;SDS011;15738;44.860;10.066;2022-09-20T21:35:51;16.98;;;4.75;;
28531;SDS011;15738;44.860;10.066;2022-09-20T21:38:42;12.23;;;4.10;;
28531;SDS011;15738;44.860;10.066;2022-09-20T21:41:29;21.40;;;6.78;;
28531;SDS011;15738;44.860;10.066;2022-09-20T21:44:16;21.85;;;5.97;;
28531;SDS011;15738;44.860;10.066;2022-09-20T21:47:04;20.38;;;5.80;;
28531;SDS011;15738;44.860;10.066;2022-09-20T21:49:50;14.52;;;4.97;;
28531;SDS011;15738;44.860;10.066;2022-09-20T21:52:37;13.32;;;3.60;;
28531;SDS011;15738;44.860;10.066;2022-09-20T21:55:23;10.68;;;2.70;;
28531;SDS011;15738;44.860;10.066;2022-09-20T21:58:08;7.10;;;2.20;;
28531;SDS011;15738;44.860;10.066;2022-09-20T22:01:03;9.23;;;2.97;;
28531;SDS011;15738;44.860;10.066;2022-09-20T22:03:51;11.48;;;3.58;;
28531;SDS011;15738;44.860;10.066;2022-09-20T22:06:40;9.23;;;3.65;;
28531;SDS011;15738;44.860;10.066;2022-09-20T22:09:27;11.93;;;4.05;;
28531;SDS011;15738;44.860;10.066;2022-09-20T22:12:13;17.90;;;3.88;;
28531;SDS011;15738;44.860;10.066;2022-09-20T22:14:59;8.27;;;2.70;;
28531;SDS011;15738;44.860;10.066;2022-09-20T22:17:44;7.85;;;2.67;;
28531;SDS011;15738;44.860;10.066;2022-09-20T22:20:29;8.77;;;2.60;;
28531;SDS011;15738;44.860;10.066;2022-09-20T22:23:15;7.47;;;2.40;;
28531;SDS011;15738;44.860;10.066;2022-09-20T22:26:05;6.47;;;2.17;;
28531;SDS011;15738;44.860;10.066;2022-09-20T22:28:56;10.23;;;1.98;;